EWG67Q EGPH-EDDK
Flight info
| Callsign | EWG67Q |
|---|---|
| Flight time | N/A |
| Altitude | 25000 |
| Route | TLA Y96 OTBUN/N0448F350 DCT ERKIT N110 DOLAS L603 LAMSO DCT PAM L620 SONEB/N0403F230 Z841 GETNI T858 KOPAG KOPAG1B |
| Aircraft | A320/M-SDE3FGHIRWY/LB1 |
Departure
| Time | N/A |
|---|---|
| Airport | Edinburgh Airport (EGPH) |
Arrival
| Time | 2026-04-24 23:49 |
|---|---|
| Airport | Cologne Bonn Airport (EDDK) |
| Time | Latitude | Longitude | Altitude | Speed | Heading |
|---|---|---|---|---|---|
| 2026-04-24 23:10 | 52.79270 | 2.53572 | 35283 ft | 443 kts | 105° |
| 2026-04-24 23:10 | 52.78633 | 2.58551 | 35283 ft | 443 kts | 105° |
| 2026-04-24 23:11 | 52.77347 | 2.68592 | 35279 ft | 444 kts | 105° |
| 2026-04-24 23:11 | 52.76045 | 2.78565 | 35286 ft | 445 kts | 105° |
| 2026-04-24 23:12 | 52.74743 | 2.88483 | 35277 ft | 445 kts | 105° |
| 2026-04-24 23:12 | 52.73420 | 2.98472 | 35275 ft | 445 kts | 106° |
| 2026-04-24 23:13 | 52.71846 | 3.08346 | 35268 ft | 444 kts | 110° |
| 2026-04-24 23:13 | 52.70021 | 3.18065 | 35265 ft | 444 kts | 111° |
| 2026-04-24 23:14 | 52.68172 | 3.27785 | 35260 ft | 445 kts | 110° |
| 2026-04-24 23:14 | 52.66372 | 3.37556 | 35261 ft | 446 kts | 110° |
| 2026-04-24 23:15 | 52.64597 | 3.47348 | 35256 ft | 447 kts | 110° |
| 2026-04-24 23:15 | 52.62798 | 3.57148 | 35256 ft | 447 kts | 110° |
| 2026-04-24 23:16 | 52.60971 | 3.66947 | 35251 ft | 448 kts | 110° |
| 2026-04-24 23:16 | 52.59142 | 3.76746 | 35253 ft | 449 kts | 110° |
| 2026-04-24 23:17 | 52.57310 | 3.86505 | 35248 ft | 450 kts | 110° |
| 2026-04-24 23:17 | 52.55466 | 3.96335 | 35251 ft | 450 kts | 110° |
| 2026-04-24 23:18 | 52.53603 | 4.06182 | 35246 ft | 451 kts | 110° |
| 2026-04-24 23:18 | 52.51727 | 4.16018 | 35247 ft | 451 kts | 110° |
| 2026-04-24 23:19 | 52.49840 | 4.25854 | 35242 ft | 452 kts | 110° |
| 2026-04-24 23:19 | 52.47939 | 4.35679 | 35243 ft | 452 kts | 110° |
| 2026-04-24 23:20 | 52.46023 | 4.45526 | 35234 ft | 453 kts | 110° |
| 2026-04-24 23:20 | 52.44106 | 4.55374 | 35234 ft | 454 kts | 110° |
| 2026-04-24 23:21 | 52.42182 | 4.65233 | 35229 ft | 455 kts | 110° |
| 2026-04-24 23:21 | 52.40224 | 4.75189 | 35251 ft | 465 kts | 110° |
| 2026-04-24 23:22 | 52.38213 | 4.85353 | 35420 ft | 472 kts | 110° |
| 2026-04-24 23:22 | 52.37200 | 4.90461 | 35652 ft | 472 kts | 110° |
| 2026-04-24 23:22 | 52.36185 | 4.95562 | 35885 ft | 472 kts | 110° |
| 2026-04-24 23:22 | 52.35174 | 5.00623 | 36254 ft | 475 kts | 110° |
| 2026-04-24 23:23 | 52.34144 | 5.05767 | 36382 ft | 477 kts | 110° |
| 2026-04-24 23:23 | 52.33097 | 5.10939 | 36510 ft | 480 kts | 111° |
| 2026-04-24 23:23 | 52.31967 | 5.16084 | 36645 ft | 481 kts | 112° |
| 2026-04-24 23:23 | 52.30756 | 5.21196 | 36765 ft | 483 kts | 114° |
| 2026-04-24 23:24 | 52.29496 | 5.26295 | 36912 ft | 485 kts | 114° |
| 2026-04-24 23:24 | 52.28216 | 5.31416 | 37032 ft | 487 kts | 114° |
| 2026-04-24 23:24 | 52.26946 | 5.36548 | 37193 ft | 488 kts | 114° |
| 2026-04-24 23:25 | 52.24024 | 5.46573 | 37245 ft | 490 kts | 130° |
| 2026-04-24 23:25 | 52.19821 | 5.55416 | 37241 ft | 497 kts | 131° |
| 2026-04-24 23:26 | 52.15547 | 5.64290 | 37246 ft | 498 kts | 131° |
| 2026-04-24 23:26 | 52.11267 | 5.73145 | 37247 ft | 497 kts | 131° |
| 2026-04-24 23:27 | 52.06981 | 5.81976 | 37247 ft | 497 kts | 131° |
| 2026-04-24 23:27 | 52.02701 | 5.90787 | 37247 ft | 497 kts | 131° |
| 2026-04-24 23:28 | 51.98375 | 5.99632 | 37247 ft | 497 kts | 131° |
| 2026-04-24 23:28 | 51.94080 | 6.08399 | 37252 ft | 496 kts | 131° |
| 2026-04-24 23:29 | 51.89787 | 6.17058 | 37244 ft | 495 kts | 135° |
| 2026-04-24 23:29 | 51.84681 | 6.24279 | 36640 ft | 484 kts | 144° |
| 2026-04-24 23:29 | 51.82081 | 6.27724 | 35947 ft | 483 kts | 145° |
| 2026-04-24 23:30 | 51.79474 | 6.31157 | 35221 ft | 483 kts | 145° |
| 2026-04-24 23:30 | 51.76868 | 6.34573 | 34580 ft | 479 kts | 145° |
| 2026-04-24 23:30 | 51.74297 | 6.37937 | 33473 ft | 475 kts | 146° |
| 2026-04-24 23:30 | 51.71732 | 6.41286 | 32360 ft | 472 kts | 146° |
| 2026-04-24 23:31 | 51.69216 | 6.44579 | 31529 ft | 461 kts | 146° |
| 2026-04-24 23:31 | 51.66736 | 6.47822 | 30469 ft | 458 kts | 146° |
| 2026-04-24 23:31 | 51.64263 | 6.51047 | 29279 ft | 455 kts | 146° |
| 2026-04-24 23:31 | 51.61827 | 6.54219 | 28275 ft | 447 kts | 146° |
| 2026-04-24 23:32 | 51.59428 | 6.57339 | 27360 ft | 439 kts | 145° |
| 2026-04-24 23:32 | 51.57072 | 6.60396 | 26487 ft | 431 kts | 145° |
| 2026-04-24 23:32 | 51.54759 | 6.63393 | 25594 ft | 425 kts | 145° |
| 2026-04-24 23:32 | 51.52474 | 6.66352 | 24712 ft | 420 kts | 145° |
| 2026-04-24 23:33 | 51.50209 | 6.69280 | 23849 ft | 415 kts | 145° |
| 2026-04-24 23:33 | 51.48728 | 6.71194 | 23210 ft | 412 kts | 145° |
| 2026-04-24 23:33 | 51.45791 | 6.74978 | 22014 ft | 403 kts | 144° |
| 2026-04-24 23:33 | 51.43589 | 6.77807 | 21160 ft | 397 kts | 144° |
| 2026-04-24 23:34 | 51.41474 | 6.80525 | 20365 ft | 392 kts | 144° |
| 2026-04-24 23:34 | 51.39367 | 6.83233 | 19582 ft | 386 kts | 143° |
| 2026-04-24 23:34 | 51.37289 | 6.85904 | 18825 ft | 381 kts | 143° |
| 2026-04-24 23:34 | 51.35233 | 6.88539 | 18023 ft | 376 kts | 143° |
| 2026-04-24 23:35 | 51.33201 | 6.91142 | 17196 ft | 371 kts | 143° |
| 2026-04-24 23:35 | 51.31195 | 6.93709 | 16407 ft | 367 kts | 143° |
| 2026-04-24 23:35 | 51.29216 | 6.96241 | 15635 ft | 362 kts | 143° |
| 2026-04-24 23:35 | 51.27261 | 6.98734 | 14880 ft | 357 kts | 143° |
| 2026-04-24 23:36 | 51.25338 | 7.01179 | 14579 ft | 347 kts | 143° |
| 2026-04-24 23:36 | 51.23477 | 7.03543 | 14461 ft | 337 kts | 143° |
| 2026-04-24 23:36 | 51.21671 | 7.05838 | 14333 ft | 328 kts | 143° |
| 2026-04-24 23:36 | 51.19907 | 7.08079 | 14168 ft | 321 kts | 143° |
| 2026-04-24 23:37 | 51.18173 | 7.10284 | 13877 ft | 318 kts | 142° |
| 2026-04-24 23:37 | 51.16477 | 7.12439 | 13555 ft | 315 kts | 143° |
| 2026-04-24 23:37 | 51.13057 | 7.16769 | 12890 ft | 312 kts | 142° |
| 2026-04-24 23:38 | 51.11359 | 7.18918 | 12430 ft | 314 kts | 142° |
| 2026-04-24 23:38 | 51.09632 | 7.21089 | 11965 ft | 317 kts | 142° |
| 2026-04-24 23:38 | 51.07904 | 7.23259 | 11596 ft | 316 kts | 142° |
| 2026-04-24 23:38 | 51.06184 | 7.25422 | 11245 ft | 314 kts | 142° |
| 2026-04-24 23:39 | 51.04478 | 7.27573 | 10899 ft | 312 kts | 142° |
| 2026-04-24 23:39 | 51.02787 | 7.29706 | 10566 ft | 310 kts | 142° |
| 2026-04-24 23:39 | 51.01108 | 7.31819 | 10314 ft | 304 kts | 142° |
| 2026-04-24 23:39 | 50.99469 | 7.33875 | 10117 ft | 297 kts | 142° |
| 2026-04-24 23:40 | 50.97856 | 7.35900 | 9768 ft | 295 kts | 142° |
| 2026-04-24 23:40 | 50.96253 | 7.37909 | 9415 ft | 293 kts | 142° |
| 2026-04-24 23:40 | 50.94628 | 7.39846 | 9053 ft | 291 kts | 143° |
| 2026-04-24 23:40 | 50.93005 | 7.41746 | 8677 ft | 290 kts | 143° |
| 2026-04-24 23:41 | 50.91368 | 7.43589 | 8300 ft | 288 kts | 150° |
| 2026-04-24 23:41 | 50.89519 | 7.44770 | 7922 ft | 286 kts | 162° |
| 2026-04-24 23:41 | 50.87616 | 7.45688 | 7525 ft | 286 kts | 163° |
| 2026-04-24 23:41 | 50.85713 | 7.46573 | 7160 ft | 284 kts | 163° |
| 2026-04-24 23:42 | 50.83818 | 7.47442 | 6784 ft | 283 kts | 163° |
| 2026-04-24 23:42 | 50.81926 | 7.48300 | 6401 ft | 282 kts | 163° |
| 2026-04-24 23:42 | 50.80047 | 7.49149 | 6006 ft | 280 kts | 163° |
| 2026-04-24 23:42 | 50.78171 | 7.49986 | 5606 ft | 279 kts | 166° |
| 2026-04-24 23:43 | 50.76256 | 7.50122 | 5218 ft | 277 kts | 192° |
| 2026-04-24 23:43 | 50.74534 | 7.48869 | 4826 ft | 273 kts | 221° |
| 2026-04-24 23:43 | 50.73268 | 7.46717 | 4635 ft | 262 kts | 232° |
| 2026-04-24 23:43 | 50.72164 | 7.44520 | 4508 ft | 249 kts | 237° |
| 2026-04-24 23:44 | 50.71519 | 7.42095 | 4392 ft | 235 kts | 260° |
| 2026-04-24 23:44 | 50.71488 | 7.39613 | 4283 ft | 222 kts | 280° |
| 2026-04-24 23:44 | 50.71800 | 7.37272 | 4068 ft | 216 kts | 294° |
| 2026-04-24 23:44 | 50.72551 | 7.35296 | 3809 ft | 210 kts | 314° |
| 2026-04-24 23:45 | 50.73593 | 7.33749 | 3544 ft | 202 kts | 319° |
| 2026-04-24 23:45 | 50.74620 | 7.32279 | 3276 ft | 196 kts | 319° |
| 2026-04-24 23:45 | 50.75615 | 7.30851 | 3034 ft | 190 kts | 318° |
| 2026-04-24 23:45 | 50.76583 | 7.29459 | 2764 ft | 186 kts | 318° |
| 2026-04-24 23:46 | 50.77528 | 7.28100 | 2510 ft | 182 kts | 318° |
| 2026-04-24 23:46 | 50.78451 | 7.26771 | 2263 ft | 176 kts | 319° |
| 2026-04-24 23:46 | 50.79328 | 7.25507 | 2050 ft | 163 kts | 319° |
| 2026-04-24 23:46 | 50.80122 | 7.24361 | 1814 ft | 147 kts | 319° |
| 2026-04-24 23:47 | 50.80863 | 7.23293 | 1625 ft | 142 kts | 319° |
| 2026-04-24 23:47 | 50.81584 | 7.22253 | 1421 ft | 139 kts | 319° |
| 2026-04-24 23:47 | 50.82297 | 7.21225 | 1226 ft | 138 kts | 318° |
| 2026-04-24 23:47 | 50.83004 | 7.20205 | 1024 ft | 137 kts | 317° |
| 2026-04-24 23:48 | 50.83471 | 7.19530 | 894 ft | 137 kts | 317° |
| 2026-04-24 23:48 | 50.84408 | 7.18174 | 655 ft | 136 kts | 317° |
| 2026-04-24 23:48 | 50.84872 | 7.17502 | 533 ft | 137 kts | 317° |
| 2026-04-24 23:48 | 50.85578 | 7.16487 | 350 ft | 138 kts | 317° |
| 2026-04-24 23:49 | 50.86383 | 7.15318 | 285 ft | 88 kts | 317° |
| 2026-04-24 23:49 | 50.86743 | 7.14797 | 268 ft | 62 kts | 317° |
| 2026-04-24 23:49 | 50.86950 | 7.14496 | 258 ft | 57 kts | 316° |
| 2026-04-24 23:49 | 50.87183 | 7.14158 | 247 ft | 33 kts | 316° |
| 2026-04-24 23:50 | 50.87294 | 7.13890 | 242 ft | 30 kts | 287° |
| 2026-04-24 23:50 | 50.87326 | 7.13637 | 236 ft | 20 kts | 279° |
| 2026-04-24 23:50 | 50.87340 | 7.13511 | 233 ft | 8 kts | 279° |
| 2026-04-24 23:50 | 50.87351 | 7.13406 | 232 ft | 13 kts | 279° |
| 2026-04-24 23:51 | 50.87386 | 7.13251 | 232 ft | 16 kts | 312° |
| 2026-04-24 23:51 | 50.87472 | 7.13129 | 232 ft | 17 kts | 317° |
| 2026-04-24 23:51 | 50.87565 | 7.12994 | 232 ft | 19 kts | 317° |
| 2026-04-24 23:51 | 50.87668 | 7.12845 | 232 ft | 21 kts | 317° |
| 2026-04-24 23:52 | 50.87755 | 7.12717 | 232 ft | 8 kts | 317° |
| 2026-04-24 23:52 | 50.87777 | 7.12653 | 232 ft | 6 kts | 274° |
| 2026-04-24 23:52 | 50.87773 | 7.12588 | 232 ft | 8 kts | 270° |
| 2026-04-24 23:52 | 50.87790 | 7.12485 | 234 ft | 9 kts | 288° |
| 2026-04-24 23:53 | 50.87803 | 7.12421 | 232 ft | 1 kts | 288° |
| 2026-04-24 23:53 | 50.87803 | 7.12420 | 232 ft | 0 kts | 288° |